createdAt,value
2022-08-20T00:02:15.335Z,19.36
2022-08-20T00:04:44.154Z,19.35
2022-08-20T00:07:13.691Z,19.35
2022-08-20T00:09:42.826Z,19.32
2022-08-20T00:12:12.751Z,19.29
2022-08-20T00:14:41.115Z,19.28
2022-08-20T00:17:09.337Z,19.31
2022-08-20T00:19:39.843Z,19.31
2022-08-20T00:22:08.137Z,19.25
2022-08-20T00:24:36.497Z,19.27
2022-08-20T00:27:04.700Z,19.24
2022-08-20T00:29:32.631Z,19.22
2022-08-20T00:32:00.467Z,19.25
2022-08-20T00:34:28.715Z,19.22
2022-08-20T00:36:56.650Z,19.19
2022-08-20T00:39:24.612Z,19.21
2022-08-20T00:41:52.512Z,19.19
2022-08-20T00:44:22.932Z,19.18
2022-08-20T00:46:52.459Z,19.18
2022-08-20T00:49:27.924Z,19.19
2022-08-20T00:52:05.762Z,19.19
2022-08-20T00:54:43.781Z,19.17
2022-08-20T00:57:29.835Z,19.18
2022-08-20T01:00:27.910Z,19.14
2022-08-20T01:02:57.311Z,19.12
2022-08-20T01:05:29.498Z,19.14
2022-08-20T01:08:10.914Z,19.17
2022-08-20T01:10:42.488Z,19.18
2022-08-20T01:13:13.325Z,19.18
2022-08-20T01:15:44.309Z,19.18
2022-08-20T01:18:26.334Z,19.18
2022-08-20T01:21:02.987Z,19.19
2022-08-20T01:23:39.925Z,19.21
2022-08-20T01:26:15.974Z,19.21
2022-08-20T01:28:55.413Z,19.22
2022-08-20T01:31:26.244Z,19.18
2022-08-20T01:33:55.833Z,19.18
2022-08-20T01:36:37.680Z,19.15
2022-08-20T01:39:10.322Z,19.18
2022-08-20T01:41:50.245Z,19.21
2022-08-20T01:44:20.037Z,19.21
2022-08-20T01:46:50.666Z,19.21
2022-08-20T01:49:37.479Z,19.12
2022-08-20T01:52:09.610Z,19.07
2022-08-20T01:54:38.243Z,19.03
2022-08-20T01:57:16.991Z,18.97
2022-08-20T01:59:45.300Z,18.97
2022-08-20T02:02:13.758Z,18.93
2022-08-20T02:04:42.469Z,18.90
2022-08-20T02:07:16.965Z,18.86
2022-08-20T02:09:46.268Z,18.89
2022-08-20T02:12:15.473Z,18.86
2022-08-20T02:14:48.777Z,18.86
2022-08-20T02:17:18.685Z,18.82
2022-08-20T02:19:50.435Z,18.82
2022-08-20T02:22:49.911Z,18.82
2022-08-20T02:25:20.672Z,18.79
2022-08-20T02:27:53.281Z,18.76
2022-08-20T02:30:34.829Z,18.77
2022-08-20T02:33:06.623Z,18.77
2022-08-20T02:35:35.501Z,18.74
2022-08-20T02:38:03.892Z,18.74
2022-08-20T02:40:32.670Z,18.72
2022-08-20T02:43:02.175Z,18.70
2022-08-20T02:45:36.460Z,18.72
2022-08-20T02:48:07.764Z,18.70
2022-08-20T02:50:35.586Z,18.70
2022-08-20T02:53:03.868Z,18.72
2022-08-20T02:55:31.808Z,18.74
2022-08-20T02:58:01.015Z,18.76
2022-08-20T03:00:32.102Z,18.77
2022-08-20T03:03:14.560Z,18.79
2022-08-20T03:05:44.511Z,18.77
2022-08-20T03:08:14.858Z,18.73
2022-08-20T03:10:45.551Z,18.69
2022-08-20T03:13:14.097Z,18.65
2022-08-20T03:15:44.932Z,18.60
2022-08-20T03:18:13.672Z,18.59
2022-08-20T03:20:46.024Z,18.53
2022-08-20T03:23:14.820Z,18.48
2022-08-20T03:25:43.320Z,18.46
2022-08-20T03:28:11.482Z,18.46
2022-08-20T03:30:40.503Z,18.42
2022-08-20T03:33:12.376Z,18.42
2022-08-20T03:35:40.551Z,18.44
2022-08-20T03:38:12.383Z,18.49
2022-08-20T03:40:41.796Z,18.48
2022-08-20T03:43:10.409Z,18.49
2022-08-20T03:45:41.358Z,18.51
2022-08-20T03:48:11.695Z,18.52
2022-08-20T03:50:42.527Z,18.53
2022-08-20T03:53:13.174Z,18.55
2022-08-20T03:55:54.031Z,18.53
2022-08-20T03:58:33.283Z,18.52
2022-08-20T04:01:06.836Z,18.53
2022-08-20T04:03:35.598Z,18.55
2022-08-20T04:06:04.344Z,18.51
2022-08-20T04:08:32.312Z,18.53
2022-08-20T04:11:00.273Z,18.52
2022-08-20T04:13:31.397Z,18.48
2022-08-20T04:16:03.686Z,18.44
2022-08-20T04:18:36.932Z,18.45
2022-08-20T04:21:05.947Z,18.42
2022-08-20T04:23:34.868Z,18.34
2022-08-20T04:26:02.775Z,18.37
2022-08-20T04:28:30.831Z,18.32
2022-08-20T04:31:00.773Z,18.28
2022-08-20T04:33:34.040Z,18.24
2022-08-20T04:36:08.775Z,18.21
2022-08-20T04:38:47.757Z,18.22
2022-08-20T04:41:22.965Z,18.17
2022-08-20T04:43:54.302Z,18.14
2022-08-20T04:46:25.568Z,18.12
2022-08-20T04:48:54.477Z,18.14
2022-08-20T04:51:24.300Z,18.14
2022-08-20T04:53:54.644Z,18.19
2022-08-20T04:56:32.626Z,18.19
2022-08-20T04:59:02.179Z,18.22
2022-08-20T05:01:30.191Z,18.27
2022-08-20T05:03:58.828Z,18.29
2022-08-20T05:06:29.693Z,18.29
2022-08-20T05:09:00.199Z,18.29
2022-08-20T05:11:33.635Z,18.28
2022-08-20T05:14:05.407Z,18.31
2022-08-20T05:16:37.779Z,18.32
2022-08-20T05:19:09.743Z,18.32
2022-08-20T05:21:38.278Z,18.34
2022-08-20T05:24:07.770Z,18.35
2022-08-20T05:26:36.195Z,18.34
2022-08-20T05:29:06.490Z,18.32
2022-08-20T05:31:35.583Z,18.28
2022-08-20T05:34:10.360Z,18.28
2022-08-20T05:36:45.449Z,18.28
2022-08-20T05:39:16.154Z,18.49
2022-08-20T05:41:43.999Z,18.84
2022-08-20T05:44:14.067Z,19.21
2022-08-20T05:46:44.388Z,19.03
2022-08-20T05:49:16.354Z,18.80
2022-08-20T05:51:44.811Z,18.69
2022-08-20T05:54:13.744Z,18.55
2022-08-20T05:56:41.978Z,18.48
2022-08-20T05:59:12.320Z,18.42
2022-08-20T06:01:42.094Z,18.45
2022-08-20T06:04:27.899Z,18.37
2022-08-20T06:07:05.261Z,18.42
2022-08-20T06:09:33.621Z,18.39
2022-08-20T06:12:04.508Z,18.37
2022-08-20T06:14:33.469Z,18.39
2022-08-20T06:17:13.545Z,18.37
2022-08-20T06:19:44.260Z,18.41
2022-08-20T06:22:19.049Z,18.48
2022-08-20T06:24:51.477Z,18.46
2022-08-20T06:27:20.000Z,18.55
2022-08-20T06:29:48.827Z,18.65
2022-08-20T06:32:18.568Z,18.76
2022-08-20T06:34:50.569Z,18.72
2022-08-20T06:37:31.547Z,18.87
2022-08-20T06:40:07.800Z,19.01
2022-08-20T06:42:36.459Z,19.11
2022-08-20T06:45:06.162Z,19.12
2022-08-20T06:47:34.885Z,19.11
2022-08-20T06:50:05.379Z,19.14
2022-08-20T06:52:52.299Z,19.27
2022-08-20T06:55:21.818Z,19.29
2022-08-20T06:58:00.350Z,19.51
2022-08-20T07:00:31.445Z,19.79
2022-08-20T07:03:03.463Z,19.84
2022-08-20T07:05:35.225Z,20.01
2022-08-20T07:08:04.544Z,20.86
2022-08-20T07:10:32.919Z,20.97
2022-08-20T07:13:00.999Z,21.46
2022-08-20T07:15:29.017Z,22.24
2022-08-20T07:18:01.442Z,22.72
2022-08-20T07:20:32.039Z,23.93
2022-08-20T07:23:00.904Z,24.52
2022-08-20T07:25:29.813Z,24.89
2022-08-20T07:28:02.773Z,25.22
2022-08-20T07:30:55.997Z,25.60
2022-08-20T07:33:26.072Z,25.13
2022-08-20T07:35:58.086Z,25.16
2022-08-20T07:38:27.549Z,24.80
2022-08-20T07:41:13.285Z,25.30
2022-08-20T07:43:42.734Z,25.37
2022-08-20T07:46:10.669Z,25.43
2022-08-20T07:48:41.750Z,25.44
2022-08-20T07:51:11.032Z,25.38
2022-08-20T07:53:40.518Z,25.77
2022-08-20T07:56:15.448Z,25.88
2022-08-20T07:58:49.692Z,25.84
2022-08-20T08:01:28.149Z,25.35
2022-08-20T08:04:04.925Z,25.81
2022-08-20T08:06:33.609Z,25.85
2022-08-20T08:09:13.346Z,25.89
2022-08-20T08:11:50.059Z,25.75
2022-08-20T08:14:23.569Z,24.90
2022-08-20T08:16:59.878Z,25.10
2022-08-20T08:19:34.349Z,24.31
2022-08-20T08:22:02.413Z,24.85
2022-08-20T08:24:30.346Z,24.80
2022-08-20T08:26:58.424Z,24.41
2022-08-20T08:29:26.630Z,24.54
2022-08-20T08:31:54.460Z,24.31
2022-08-20T08:34:25.289Z,24.10
2022-08-20T08:36:53.503Z,24.09
2022-08-20T08:39:22.203Z,24.17
2022-08-20T08:41:51.586Z,24.24
2022-08-20T08:44:27.281Z,23.89
2022-08-20T08:47:18.371Z,23.57
2022-08-20T08:49:47.785Z,22.92
2022-08-20T08:52:29.221Z,22.80
2022-08-20T08:55:00.088Z,22.85
2022-08-20T08:57:29.090Z,23.28
2022-08-20T09:00:05.572Z,23.33
2022-08-20T09:02:36.644Z,23.43
2022-08-20T09:05:14.934Z,23.35
2022-08-20T09:07:45.642Z,22.99
2022-08-20T09:10:14.133Z,23.00
2022-08-20T09:12:47.134Z,23.10
2022-08-20T09:15:16.673Z,23.45
2022-08-20T09:17:44.464Z,23.69
2022-08-20T09:20:12.671Z,23.95
2022-08-20T09:22:41.629Z,24.33
2022-08-20T09:25:09.978Z,24.52
2022-08-20T09:27:39.885Z,24.61
2022-08-20T09:30:11.494Z,24.82
2022-08-20T09:32:39.523Z,24.50
2022-08-20T09:35:09.521Z,24.62
2022-08-20T09:37:38.067Z,24.50
2022-08-20T09:40:09.322Z,24.62
2022-08-20T09:42:41.658Z,24.68
2022-08-20T09:45:11.691Z,24.35
2022-08-20T09:47:43.803Z,24.40
2022-08-20T09:50:24.123Z,24.24
2022-08-20T09:52:54.138Z,24.26
2022-08-20T09:55:33.819Z,23.71
2022-08-20T09:58:26.018Z,23.11
2022-08-20T10:00:54.086Z,23.02
2022-08-20T10:03:22.061Z,23.04
2022-08-20T10:05:50.172Z,23.07
2022-08-20T10:08:18.348Z,22.95
2022-08-20T10:10:46.215Z,23.47
2022-08-20T10:13:15.315Z,24.12
2022-08-20T10:15:43.786Z,24.76
2022-08-20T10:18:12.588Z,24.85
2022-08-20T10:20:43.991Z,24.97
2022-08-20T10:23:11.944Z,25.27
2022-08-20T10:25:40.079Z,25.17
2022-08-20T10:28:08.812Z,24.41
2022-08-20T10:30:37.600Z,23.96
2022-08-20T10:33:05.916Z,23.54
2022-08-20T10:35:34.661Z,23.28
2022-08-20T10:38:02.751Z,23.21
2022-08-20T10:40:30.705Z,23.75
2022-08-20T10:42:58.685Z,24.09
2022-08-20T10:45:26.612Z,23.90
2022-08-20T10:47:54.626Z,24.16
2022-08-20T10:50:22.890Z,24.33
2022-08-20T10:52:50.938Z,23.99
2022-08-20T10:55:19.651Z,23.85
2022-08-20T10:57:47.889Z,23.89
2022-08-20T11:00:19.150Z,24.06
2022-08-20T11:02:47.364Z,24.02
2022-08-20T11:05:15.411Z,23.85
2022-08-20T11:07:50.797Z,24.44
2022-08-20T11:10:28.909Z,25.06
2022-08-20T11:12:57.220Z,25.00
2022-08-20T11:15:25.210Z,25.07
2022-08-20T11:17:53.583Z,25.24
2022-08-20T11:20:25.027Z,25.22
2022-08-20T11:22:54.396Z,25.43
2022-08-20T11:25:22.615Z,25.48
2022-08-20T11:27:52.520Z,24.80
2022-08-20T11:30:24.117Z,24.30
2022-08-20T11:32:52.249Z,23.66
2022-08-20T11:35:47.999Z,23.21
2022-08-20T11:38:12.192Z,22.97
2022-08-20T11:40:40.446Z,22.93
2022-08-20T11:43:16.343Z,22.90
2022-08-20T11:45:52.617Z,23.17
2022-08-20T11:48:21.264Z,23.51
2022-08-20T11:50:50.499Z,23.75
2022-08-20T11:53:18.755Z,24.16
2022-08-20T11:55:48.425Z,24.02
2022-08-20T11:58:17.242Z,24.50
2022-08-20T12:00:45.700Z,25.10
2022-08-20T12:03:13.949Z,25.48
2022-08-20T12:05:43.874Z,25.78
2022-08-20T12:08:26.750Z,26.02
2022-08-20T12:11:01.449Z,26.48
2022-08-20T12:13:47.443Z,26.39
2022-08-20T12:16:18.570Z,26.64
2022-08-20T12:18:48.196Z,26.43
2022-08-20T12:21:16.999Z,26.00
2022-08-20T12:23:45.302Z,25.62
2022-08-20T12:26:13.299Z,25.26
2022-08-20T12:28:41.269Z,25.33
2022-08-20T12:31:09.470Z,25.27
2022-08-20T12:33:37.822Z,25.33
2022-08-20T12:36:06.946Z,25.72
2022-08-20T12:38:36.010Z,25.99
2022-08-20T12:41:04.563Z,25.58
2022-08-20T12:43:32.513Z,25.58
2022-08-20T12:46:00.432Z,25.65
2022-08-20T12:48:28.370Z,25.71
2022-08-20T12:50:56.368Z,25.85
2022-08-20T12:53:24.648Z,25.77
2022-08-20T12:55:52.611Z,26.07
2022-08-20T12:58:21.304Z,26.33
2022-08-20T13:00:51.143Z,26.54
2022-08-20T13:03:20.738Z,26.81
2022-08-20T13:05:49.847Z,26.91
2022-08-20T13:08:19.129Z,26.64
2022-08-20T13:10:47.724Z,26.15
2022-08-20T13:13:17.657Z,25.72
2022-08-20T13:15:50.762Z,25.60
2022-08-20T13:18:20.543Z,25.62
2022-08-20T13:20:48.601Z,25.51
2022-08-20T13:23:16.683Z,25.50
2022-08-20T13:25:44.717Z,25.77
2022-08-20T13:28:12.705Z,26.05
2022-08-20T13:30:41.409Z,25.31
2022-08-20T13:33:10.017Z,25.60
2022-08-20T13:35:37.938Z,25.89
2022-08-20T13:38:05.933Z,25.74
2022-08-20T13:40:36.855Z,25.33
2022-08-20T13:43:07.281Z,25.43
2022-08-20T13:45:36.996Z,25.45
2022-08-20T13:48:07.507Z,25.60
2022-08-20T13:50:47.234Z,25.54
2022-08-20T13:53:16.336Z,25.75
2022-08-20T13:55:44.954Z,26.05
2022-08-20T13:58:12.831Z,26.30
2022-08-20T14:00:40.764Z,26.44
2022-08-20T14:03:09.204Z,26.58
2022-08-20T14:05:41.005Z,26.41
2022-08-20T14:08:15.011Z,25.85
2022-08-20T14:10:42.936Z,25.44
2022-08-20T14:13:15.328Z,25.50
2022-08-20T14:15:44.677Z,25.45
2022-08-20T14:18:14.248Z,25.44
2022-08-20T14:20:42.864Z,25.43
2022-08-20T14:23:13.824Z,25.35
2022-08-20T14:25:44.571Z,25.31
2022-08-20T14:28:18.259Z,25.35
2022-08-20T14:30:52.808Z,25.48
2022-08-20T14:33:22.818Z,25.81
2022-08-20T14:35:51.038Z,25.89
2022-08-20T14:38:18.968Z,25.93
2022-08-20T14:40:47.329Z,25.82
2022-08-20T14:43:15.142Z,25.82
2022-08-20T14:45:43.355Z,25.86
2022-08-20T14:48:11.187Z,25.84
2022-08-20T14:50:39.323Z,25.68
2022-08-20T14:53:08.014Z,25.51
2022-08-20T14:55:37.996Z,25.41
2022-08-20T14:58:14.885Z,25.31
2022-08-20T15:00:43.888Z,25.44
2022-08-20T15:03:13.420Z,25.45
2022-08-20T15:05:41.398Z,25.62
2022-08-20T15:08:10.770Z,25.84
2022-08-20T15:10:39.676Z,25.96
2022-08-20T15:13:08.689Z,25.72
2022-08-20T15:15:36.836Z,25.71
2022-08-20T15:18:05.283Z,25.58
2022-08-20T15:20:35.458Z,25.47
2022-08-20T15:23:04.556Z,25.50
2022-08-20T15:25:36.681Z,25.37
2022-08-20T15:28:08.531Z,25.72
2022-08-20T15:30:38.678Z,25.67
2022-08-20T15:33:06.858Z,25.51
2022-08-20T15:35:34.809Z,25.31
2022-08-20T15:38:03.092Z,25.31
2022-08-20T15:40:32.845Z,25.17
2022-08-20T15:43:02.905Z,25.24
2022-08-20T15:45:35.101Z,25.28
2022-08-20T15:48:13.102Z,25.35
2022-08-20T15:51:19.502Z,25.47
2022-08-20T15:54:01.410Z,25.06
2022-08-20T15:56:44.083Z,25.10
2022-08-20T15:59:36.878Z,25.05
2022-08-20T16:02:14.679Z,24.95
2022-08-20T16:05:11.066Z,24.75
2022-08-20T16:07:46.683Z,24.62
2022-08-20T16:10:24.158Z,24.55
2022-08-20T16:12:56.463Z,24.65
2022-08-20T16:15:32.784Z,24.80
2022-08-20T16:18:05.600Z,25.06
2022-08-20T16:20:49.890Z,25.19
2022-08-20T16:23:21.528Z,25.26
2022-08-20T16:26:15.157Z,25.06
2022-08-20T16:28:51.769Z,24.88
2022-08-20T16:31:25.761Z,24.71
2022-08-20T16:34:29.868Z,24.71
2022-08-20T16:37:03.141Z,24.71
2022-08-20T16:39:44.373Z,24.65
2022-08-20T16:42:20.685Z,24.55
2022-08-20T16:44:52.874Z,24.48
2022-08-20T16:47:34.494Z,24.27
2022-08-20T16:50:17.369Z,24.10
2022-08-20T16:52:48.076Z,23.89
2022-08-20T16:55:16.355Z,23.78
2022-08-20T16:57:45.727Z,23.65
2022-08-20T17:00:22.388Z,23.63
2022-08-20T17:02:54.636Z,23.58
2022-08-20T17:05:25.844Z,23.54
2022-08-20T17:08:00.106Z,23.47
2022-08-20T17:10:30.637Z,23.26
2022-08-20T17:13:19.846Z,23.16
2022-08-20T17:16:02.482Z,23.06
2022-08-20T17:18:34.909Z,22.99
2022-08-20T17:21:23.162Z,23.07
2022-08-20T17:24:28.300Z,23.34
2022-08-20T17:27:31.043Z,23.69
2022-08-20T17:30:23.317Z,23.59
2022-08-20T17:32:58.004Z,23.69
2022-08-20T17:35:33.700Z,23.51
2022-08-20T17:38:02.685Z,23.55
2022-08-20T17:40:52.126Z,23.50
2022-08-20T17:43:32.449Z,23.30
2022-08-20T17:46:08.498Z,23.23
2022-08-20T17:48:49.488Z,23.02
2022-08-20T17:51:26.711Z,22.99
2022-08-20T17:54:06.929Z,23.02
2022-08-20T17:56:38.203Z,23.20
2022-08-20T17:59:12.287Z,23.17
2022-08-20T18:01:40.913Z,23.14
2022-08-20T18:04:10.100Z,23.13
2022-08-20T18:06:55.030Z,23.06
2022-08-20T18:09:32.310Z,23.10
2022-08-20T18:12:34.502Z,23.04
2022-08-20T18:15:11.682Z,22.99
2022-08-20T18:18:07.381Z,22.88
2022-08-20T18:21:13.986Z,23.07
2022-08-20T18:24:04.062Z,22.92
2022-08-20T18:26:38.272Z,23.02
2022-08-20T18:29:18.488Z,22.89
2022-08-20T18:32:08.281Z,22.82
2022-08-20T18:34:44.239Z,22.72
2022-08-20T18:37:17.874Z,22.71
2022-08-20T18:39:48.088Z,22.68
2022-08-20T18:42:27.310Z,22.73
2022-08-20T18:44:57.051Z,22.71
2022-08-20T18:47:33.948Z,22.59
2022-08-20T18:50:18.085Z,22.71
2022-08-20T18:53:16.855Z,22.76
2022-08-20T18:55:46.589Z,22.49
2022-08-20T18:58:48.640Z,21.80
2022-08-20T19:01:16.665Z,21.34
2022-08-20T19:03:53.667Z,21.06
2022-08-20T19:06:49.293Z,20.77
2022-08-20T19:09:43.302Z,20.52
2022-08-20T19:12:13.971Z,20.41
2022-08-20T19:14:54.442Z,20.27
2022-08-20T19:18:05.828Z,20.18
2022-08-20T19:20:37.712Z,20.11
2022-08-20T19:23:07.803Z,20.01
2022-08-20T19:25:49.521Z,19.93
2022-08-20T19:28:28.246Z,19.89
2022-08-20T19:30:57.343Z,19.84
2022-08-20T19:33:31.149Z,19.86
2022-08-20T19:36:20.287Z,19.76
2022-08-20T19:38:55.958Z,19.67
2022-08-20T19:41:31.406Z,19.63
2022-08-20T19:44:01.521Z,19.58
2022-08-20T19:46:35.835Z,19.51
2022-08-20T19:49:43.292Z,19.41
2022-08-20T19:52:20.213Z,19.32
2022-08-20T19:54:53.918Z,19.24
2022-08-20T19:57:24.346Z,19.18
2022-08-20T20:00:10.083Z,19.08
2022-08-20T20:02:38.939Z,19.06
2022-08-20T20:05:09.259Z,18.97
2022-08-20T20:07:43.896Z,18.90
2022-08-20T20:10:30.557Z,18.76
2022-08-20T20:13:14.837Z,18.70
2022-08-20T20:15:43.635Z,18.60
2022-08-20T20:18:13.660Z,18.55
2022-08-20T20:20:57.392Z,18.49
2022-08-20T20:23:38.817Z,18.44
2022-08-20T20:26:18.003Z,18.37
2022-08-20T20:28:53.814Z,18.35
2022-08-20T20:31:29.280Z,18.24
2022-08-20T20:34:01.241Z,18.25
2022-08-20T20:36:39.567Z,18.22
2022-08-20T20:39:14.298Z,18.15
2022-08-20T20:41:54.856Z,18.12
2022-08-20T20:44:25.148Z,18.08
2022-08-20T20:46:59.710Z,18.02
2022-08-20T20:49:29.436Z,18.01
2022-08-20T20:52:05.021Z,17.98
2022-08-20T20:54:40.597Z,17.97
2022-08-20T20:57:36.493Z,17.96
2022-08-20T21:00:16.591Z,17.97
2022-08-20T21:02:45.871Z,17.97
2022-08-20T21:05:15.506Z,17.91
2022-08-20T21:07:50.761Z,17.89
2022-08-20T21:10:21.771Z,17.83
2022-08-20T21:12:52.890Z,17.79
2022-08-20T21:15:23.201Z,17.69
2022-08-20T21:17:51.756Z,17.62
2022-08-20T21:20:22.077Z,17.55
2022-08-20T21:22:50.525Z,17.46
2022-08-20T21:25:20.275Z,17.39
2022-08-20T21:27:50.432Z,17.29
2022-08-20T21:30:20.266Z,17.17
2022-08-20T21:32:49.053Z,17.07
2022-08-20T21:35:17.815Z,16.97
2022-08-20T21:37:45.966Z,16.88
2022-08-20T21:40:18.104Z,16.83
2022-08-20T21:42:51.866Z,16.79
2022-08-20T21:45:21.813Z,16.72
2022-08-20T21:47:49.766Z,16.65
2022-08-20T21:50:19.787Z,16.57
2022-08-20T21:52:59.202Z,16.52
2022-08-20T21:55:33.021Z,16.48
2022-08-20T21:58:05.478Z,16.41
2022-08-20T22:00:54.005Z,16.35
2022-08-20T22:03:27.904Z,16.30
2022-08-20T22:05:57.270Z,16.28
2022-08-20T22:08:28.102Z,16.17
2022-08-20T22:10:58.955Z,16.14
2022-08-20T22:13:31.797Z,16.07
2022-08-20T22:16:01.724Z,16.04
2022-08-20T22:18:30.000Z,15.97
2022-08-20T22:20:58.598Z,15.94
2022-08-20T22:23:26.992Z,15.93
2022-08-20T22:25:55.020Z,15.90
2022-08-20T22:28:23.232Z,15.83
2022-08-20T22:30:51.525Z,15.84
2022-08-20T22:33:23.144Z,15.83
2022-08-20T22:35:55.255Z,15.74
2022-08-20T22:38:24.627Z,15.79
2022-08-20T22:40:54.129Z,15.73
2022-08-20T22:43:23.351Z,15.67
2022-08-20T22:45:55.614Z,15.62
2022-08-20T22:48:24.108Z,15.60
2022-08-20T22:50:53.321Z,15.56
2022-08-20T22:53:24.591Z,15.50
2022-08-20T22:55:53.049Z,15.46
2022-08-20T22:58:30.996Z,15.45
2022-08-20T23:01:02.341Z,15.47
2022-08-20T23:03:39.698Z,15.40
2022-08-20T23:06:10.239Z,15.36
2022-08-20T23:08:39.888Z,15.34
2022-08-20T23:11:08.104Z,15.34
2022-08-20T23:13:36.468Z,15.31
2022-08-20T23:16:06.947Z,15.24
2022-08-20T23:18:35.447Z,15.21
2022-08-20T23:21:03.684Z,15.14
2022-08-20T23:23:32.117Z,15.07
2022-08-20T23:26:01.449Z,15.04
2022-08-20T23:28:29.260Z,15.01
2022-08-20T23:30:57.646Z,14.94
2022-08-20T23:33:25.921Z,14.84
2022-08-20T23:35:53.839Z,14.87
2022-08-20T23:38:21.700Z,14.84
2022-08-20T23:40:49.710Z,14.81
2022-08-20T23:43:18.792Z,14.79
2022-08-20T23:45:46.760Z,14.76
2022-08-20T23:48:14.648Z,14.74
2022-08-20T23:50:42.649Z,14.70
2022-08-20T23:53:10.634Z,14.67
2022-08-20T23:55:38.993Z,14.66
2022-08-20T23:58:08.320Z,14.63
